sensor_id;sensor_type;location;lat;lon;timestamp;P1;durP1;ratioP1;P2;durP2;ratioP2
52974;SDS011;38839;45.186;5.720;2022-08-25T17:39:29;3.10;;;1.95;;
52974;SDS011;38839;45.186;5.720;2022-08-25T17:41:55;3.92;;;1.30;;
52974;SDS011;38839;45.186;5.720;2022-08-25T17:44:21;5.28;;;1.48;;
52974;SDS011;38839;45.186;5.720;2022-08-25T17:46:46;2.22;;;1.25;;
52974;SDS011;38839;45.186;5.720;2022-08-25T17:49:12;1.55;;;1.20;;
52974;SDS011;38839;45.186;5.720;2022-08-25T17:51:38;6.35;;;1.30;;
52974;SDS011;38839;45.186;5.720;2022-08-25T17:54:04;1.50;;;1.40;;
52974;SDS011;38839;45.186;5.720;2022-08-25T17:56:29;6.15;;;2.17;;
52974;SDS011;38839;45.186;5.720;2022-08-25T17:58:57;4.57;;;1.40;;
52974;SDS011;38839;45.186;5.720;2022-08-25T18:01:23;0.90;;;0.90;;
52974;SDS011;38839;45.186;5.720;2022-08-25T18:03:54;1.90;;;1.20;;
52974;SDS011;38839;45.186;5.720;2022-08-25T18:06:21;2.72;;;1.23;;
52974;SDS011;38839;45.186;5.720;2022-08-25T18:08:48;2.92;;;1.20;;
52974;SDS011;38839;45.186;5.720;2022-08-25T18:11:14;1.50;;;1.40;;
52974;SDS011;38839;45.186;5.720;2022-08-25T18:13:39;1.23;;;1.13;;
52974;SDS011;38839;45.186;5.720;2022-08-25T18:16:07;1.38;;;1.10;;
52974;SDS011;38839;45.186;5.720;2022-08-25T18:18:33;3.20;;;1.65;;
52974;SDS011;38839;45.186;5.720;2022-08-25T18:20:59;2.72;;;1.45;;
52974;SDS011;38839;45.186;5.720;2022-08-25T18:23:25;4.55;;;1.40;;
52974;SDS011;38839;45.186;5.720;2022-08-25T18:25:51;1.75;;;1.50;;
52974;SDS011;38839;45.186;5.720;2022-08-25T18:28:17;3.88;;;1.38;;
52974;SDS011;38839;45.186;5.720;2022-08-25T18:30:42;3.63;;;1.58;;
52974;SDS011;38839;45.186;5.720;2022-08-25T18:33:08;2.05;;;1.55;;
52974;SDS011;38839;45.186;5.720;2022-08-25T18:35:33;2.88;;;1.75;;
52974;SDS011;38839;45.186;5.720;2022-08-25T18:37:59;1.92;;;1.63;;
52974;SDS011;38839;45.186;5.720;2022-08-25T18:40:42;2.97;;;1.90;;
52974;SDS011;38839;45.186;5.720;2022-08-25T18:43:09;2.13;;;1.65;;
52974;SDS011;38839;45.186;5.720;2022-08-25T18:45:45;2.30;;;1.57;;
52974;SDS011;38839;45.186;5.720;2022-08-25T18:48:12;6.85;;;1.65;;
52974;SDS011;38839;45.186;5.720;2022-08-25T18:50:39;2.70;;;1.60;;
52974;SDS011;38839;45.186;5.720;2022-08-25T18:53:06;1.73;;;1.35;;
52974;SDS011;38839;45.186;5.720;2022-08-25T18:55:32;2.00;;;1.33;;
52974;SDS011;38839;45.186;5.720;2022-08-25T18:57:58;2.05;;;1.48;;
52974;SDS011;38839;45.186;5.720;2022-08-25T19:00:25;3.17;;;1.40;;
52974;SDS011;38839;45.186;5.720;2022-08-25T19:02:53;3.28;;;1.20;;
52974;SDS011;38839;45.186;5.720;2022-08-25T19:05:21;2.28;;;1.40;;
52974;SDS011;38839;45.186;5.720;2022-08-25T19:07:49;1.50;;;1.40;;
52974;SDS011;38839;45.186;5.720;2022-08-25T19:10:16;1.92;;;1.35;;
52974;SDS011;38839;45.186;5.720;2022-08-25T19:12:42;3.80;;;1.10;;
52974;SDS011;38839;45.186;5.720;2022-08-25T19:15:08;1.77;;;1.40;;
52974;SDS011;38839;45.186;5.720;2022-08-25T19:17:35;2.45;;;1.70;;
52974;SDS011;38839;45.186;5.720;2022-08-25T19:20:00;5.78;;;2.15;;
52974;SDS011;38839;45.186;5.720;2022-08-25T19:22:26;3.10;;;1.92;;
52974;SDS011;38839;45.186;5.720;2022-08-25T19:24:52;3.53;;;1.70;;
52974;SDS011;38839;45.186;5.720;2022-08-25T19:27:17;7.05;;;1.83;;
52974;SDS011;38839;45.186;5.720;2022-08-25T19:29:43;2.95;;;2.20;;
52974;SDS011;38839;45.186;5.720;2022-08-25T19:32:09;7.43;;;1.88;;
52974;SDS011;38839;45.186;5.720;2022-08-25T19:34:36;3.92;;;1.83;;
52974;SDS011;38839;45.186;5.720;2022-08-25T19:37:06;6.30;;;1.60;;
52974;SDS011;38839;45.186;5.720;2022-08-25T19:39:34;7.63;;;1.92;;
52974;SDS011;38839;45.186;5.720;2022-08-25T19:42:02;6.85;;;1.63;;
52974;SDS011;38839;45.186;5.720;2022-08-25T19:44:28;3.72;;;1.55;;
52974;SDS011;38839;45.186;5.720;2022-08-25T19:46:54;1.92;;;1.20;;
52974;SDS011;38839;45.186;5.720;2022-08-25T19:49:21;1.77;;;1.20;;
52974;SDS011;38839;45.186;5.720;2022-08-25T19:51:50;3.53;;;1.10;;
52974;SDS011;38839;45.186;5.720;2022-08-25T19:54:19;4.43;;;1.10;;
52974;SDS011;38839;45.186;5.720;2022-08-25T19:56:47;5.03;;;1.17;;
52974;SDS011;38839;45.186;5.720;2022-08-25T19:59:13;3.08;;;1.13;;
52974;SDS011;38839;45.186;5.720;2022-08-25T20:01:40;2.70;;;1.08;;
52974;SDS011;38839;45.186;5.720;2022-08-25T20:04:06;6.18;;;1.33;;
52974;SDS011;38839;45.186;5.720;2022-08-25T20:06:33;2.97;;;1.40;;
52974;SDS011;38839;45.186;5.720;2022-08-25T20:08:58;3.28;;;1.20;;
52974;SDS011;38839;45.186;5.720;2022-08-25T20:11:26;3.70;;;1.30;;
52974;SDS011;38839;45.186;5.720;2022-08-25T20:13:52;5.38;;;1.33;;
52974;SDS011;38839;45.186;5.720;2022-08-25T20:16:18;5.25;;;1.30;;
52974;SDS011;38839;45.186;5.720;2022-08-25T20:18:44;1.98;;;1.10;;
52974;SDS011;38839;45.186;5.720;2022-08-25T20:21:10;6.28;;;1.20;;
52974;SDS011;38839;45.186;5.720;2022-08-25T20:23:36;2.10;;;1.00;;
52974;SDS011;38839;45.186;5.720;2022-08-25T20:26:22;1.92;;;0.95;;
52974;SDS011;38839;45.186;5.720;2022-08-25T20:28:47;1.75;;;1.00;;
52974;SDS011;38839;45.186;5.720;2022-08-25T20:31:13;1.67;;;1.00;;
52974;SDS011;38839;45.186;5.720;2022-08-25T20:33:38;1.77;;;1.10;;
52974;SDS011;38839;45.186;5.720;2022-08-25T20:36:04;1.15;;;1.00;;
52974;SDS011;38839;45.186;5.720;2022-08-25T20:38:30;2.08;;;1.10;;
52974;SDS011;38839;45.186;5.720;2022-08-25T20:40:57;1.42;;;1.10;;
52974;SDS011;38839;45.186;5.720;2022-08-25T20:43:23;1.10;;;1.02;;
52974;SDS011;38839;45.186;5.720;2022-08-25T20:45:57;1.88;;;1.10;;
52974;SDS011;38839;45.186;5.720;2022-08-25T20:48:26;6.53;;;1.05;;
52974;SDS011;38839;45.186;5.720;2022-08-25T20:50:52;2.25;;;0.90;;
52974;SDS011;38839;45.186;5.720;2022-08-25T20:53:17;3.40;;;0.90;;
52974;SDS011;38839;45.186;5.720;2022-08-25T20:55:43;2.67;;;0.90;;
52974;SDS011;38839;45.186;5.720;2022-08-25T20:58:08;5.63;;;0.90;;
52974;SDS011;38839;45.186;5.720;2022-08-25T21:00:33;2.45;;;1.00;;
52974;SDS011;38839;45.186;5.720;2022-08-25T21:02:59;1.23;;;1.13;;
52974;SDS011;38839;45.186;5.720;2022-08-25T21:05:24;1.15;;;1.08;;
52974;SDS011;38839;45.186;5.720;2022-08-25T21:07:50;3.15;;;0.88;;
52974;SDS011;38839;45.186;5.720;2022-08-25T21:10:15;1.95;;;0.82;;
52974;SDS011;38839;45.186;5.720;2022-08-25T21:12:41;0.75;;;0.73;;
52974;SDS011;38839;45.186;5.720;2022-08-25T21:15:09;1.13;;;0.80;;
52974;SDS011;38839;45.186;5.720;2022-08-25T21:17:37;2.22;;;0.80;;
52974;SDS011;38839;45.186;5.720;2022-08-25T21:20:04;0.80;;;0.80;;
52974;SDS011;38839;45.186;5.720;2022-08-25T21:22:32;1.80;;;0.93;;
52974;SDS011;38839;45.186;5.720;2022-08-25T21:24:58;0.95;;;0.77;;
52974;SDS011;38839;45.186;5.720;2022-08-25T21:27:23;1.70;;;0.80;;
52974;SDS011;38839;45.186;5.720;2022-08-25T21:29:49;2.33;;;0.75;;
52974;SDS011;38839;45.186;5.720;2022-08-25T21:32:14;3.58;;;0.93;;
52974;SDS011;38839;45.186;5.720;2022-08-25T21:34:40;1.30;;;1.00;;
52974;SDS011;38839;45.186;5.720;2022-08-25T21:37:05;1.27;;;0.90;;
52974;SDS011;38839;45.186;5.720;2022-08-25T21:39:31;1.02;;;1.00;;
52974;SDS011;38839;45.186;5.720;2022-08-25T21:41:57;1.55;;;1.05;;
52974;SDS011;38839;45.186;5.720;2022-08-25T21:44:22;2.67;;;0.90;;
52974;SDS011;38839;45.186;5.720;2022-08-25T21:46:48;2.45;;;0.80;;
52974;SDS011;38839;45.186;5.720;2022-08-25T21:49:14;0.90;;;0.90;;
52974;SDS011;38839;45.186;5.720;2022-08-25T21:51:41;3.85;;;1.00;;
52974;SDS011;38839;45.186;5.720;2022-08-25T21:54:12;4.20;;;1.00;;
52974;SDS011;38839;45.186;5.720;2022-08-25T21:56:40;2.88;;;1.40;;
52974;SDS011;38839;45.186;5.720;2022-08-25T21:59:19;1.00;;;1.00;;
52974;SDS011;38839;45.186;5.720;2022-08-25T22:01:47;1.08;;;0.90;;
52974;SDS011;38839;45.186;5.720;2022-08-25T22:04:14;2.15;;;1.08;;
52974;SDS011;38839;45.186;5.720;2022-08-25T22:06:39;1.33;;;1.00;;
52974;SDS011;38839;45.186;5.720;2022-08-25T22:09:06;1.13;;;1.00;;
52974;SDS011;38839;45.186;5.720;2022-08-25T22:11:32;1.92;;;1.00;;
52974;SDS011;38839;45.186;5.720;2022-08-25T22:13:59;1.45;;;1.17;;
52974;SDS011;38839;45.186;5.720;2022-08-25T22:16:25;2.38;;;1.02;;
52974;SDS011;38839;45.186;5.720;2022-08-25T22:18:51;1.63;;;1.10;;
52974;SDS011;38839;45.186;5.720;2022-08-25T22:21:17;1.92;;;1.10;;
52974;SDS011;38839;45.186;5.720;2022-08-25T22:23:44;1.67;;;0.90;;
52974;SDS011;38839;45.186;5.720;2022-08-25T22:26:11;1.20;;;1.00;;
52974;SDS011;38839;45.186;5.720;2022-08-25T22:28:39;1.85;;;0.85;;
52974;SDS011;38839;45.186;5.720;2022-08-25T22:31:05;4.85;;;1.17;;
52974;SDS011;38839;45.186;5.720;2022-08-25T22:33:31;1.60;;;1.30;;
52974;SDS011;38839;45.186;5.720;2022-08-25T22:35:57;1.08;;;0.98;;
52974;SDS011;38839;45.186;5.720;2022-08-25T22:38:22;1.73;;;1.10;;
52974;SDS011;38839;45.186;5.720;2022-08-25T22:40:47;3.85;;;1.08;;
52974;SDS011;38839;45.186;5.720;2022-08-25T22:43:13;2.25;;;1.75;;
52974;SDS011;38839;45.186;5.720;2022-08-25T22:45:38;2.90;;;1.15;;
52974;SDS011;38839;45.186;5.720;2022-08-25T22:48:04;3.97;;;1.20;;
52974;SDS011;38839;45.186;5.720;2022-08-25T22:50:32;4.30;;;1.50;;
52974;SDS011;38839;45.186;5.720;2022-08-25T22:52:58;2.08;;;1.10;;
52974;SDS011;38839;45.186;5.720;2022-08-25T22:55:23;2.97;;;1.30;;
52974;SDS011;38839;45.186;5.720;2022-08-25T22:57:49;2.35;;;1.30;;
52974;SDS011;38839;45.186;5.720;2022-08-25T23:00:15;3.35;;;1.20;;
52974;SDS011;38839;45.186;5.720;2022-08-25T23:02:41;3.13;;;1.10;;
52974;SDS011;38839;45.186;5.720;2022-08-25T23:05:07;5.60;;;1.10;;
52974;SDS011;38839;45.186;5.720;2022-08-25T23:07:35;4.20;;;1.50;;
52974;SDS011;38839;45.186;5.720;2022-08-25T23:10:03;4.22;;;1.42;;
52974;SDS011;38839;45.186;5.720;2022-08-25T23:12:31;1.38;;;1.20;;
52974;SDS011;38839;45.186;5.720;2022-08-25T23:14:56;1.00;;;0.90;;
52974;SDS011;38839;45.186;5.720;2022-08-25T23:17:21;1.73;;;1.10;;
52974;SDS011;38839;45.186;5.720;2022-08-25T23:19:47;3.40;;;1.23;;
52974;SDS011;38839;45.186;5.720;2022-08-25T23:22:12;4.97;;;1.10;;
52974;SDS011;38839;45.186;5.720;2022-08-25T23:24:40;4.18;;;1.10;;
52974;SDS011;38839;45.186;5.720;2022-08-25T23:27:07;2.13;;;1.00;;
52974;SDS011;38839;45.186;5.720;2022-08-25T23:29:35;3.30;;;1.25;;
52974;SDS011;38839;45.186;5.720;2022-08-25T23:32:02;4.03;;;0.90;;
52974;SDS011;38839;45.186;5.720;2022-08-25T23:36:56;1.33;;;1.05;;
52974;SDS011;38839;45.186;5.720;2022-08-25T23:39:22;1.98;;;1.00;;
52974;SDS011;38839;45.186;5.720;2022-08-25T23:41:48;2.65;;;1.15;;
52974;SDS011;38839;45.186;5.720;2022-08-25T23:44:14;4.63;;;1.20;;
52974;SDS011;38839;45.186;5.720;2022-08-25T23:46:39;2.30;;;1.02;;
52974;SDS011;38839;45.186;5.720;2022-08-25T23:49:06;2.60;;;1.10;;
52974;SDS011;38839;45.186;5.720;2022-08-25T23:51:33;3.92;;;1.13;;
52974;SDS011;38839;45.186;5.720;2022-08-25T23:54:00;5.53;;;1.02;;
52974;SDS011;38839;45.186;5.720;2022-08-25T23:56:29;1.55;;;1.10;;
52974;SDS011;38839;45.186;5.720;2022-08-25T23:58:56;2.03;;;0.98;;
